Time;durP1;ratioP1;P1;durP2;ratioP2;P2;SDS_P1;SDS_P2;PMS_P1;PMS_P2;Temp;Humidity;BMP_temperature;BMP_pressure;BME280_temperature;BME280_humidity;BME280_pressure;Samples;Min_cycle;Max_cycle;Signal;HPM_P1;HPM_P2
2022/05/01 00:01:27;;;;;;;24.48;12.20;;;;;;;;;;6233156;23;20043;-48
2022/05/01 00:03:53;;;;;;;22.13;11.68;;;;;;;;;;6235032;23;20087;-45
2022/05/01 00:06:19;;;;;;;21.02;10.65;;;;;;;;;;6232472;23;20035;-44
2022/05/01 00:08:45;;;;;;;19.15;11.23;;;;;;;;;;6234333;23;20042;-45
2022/05/01 00:11:11;;;;;;;20.83;11.68;;;;;;;;;;6232482;23;20080;-45
2022/05/01 00:13:36;;;;;;;18.30;10.43;;;;;;;;;;6234829;23;20019;-45
2022/05/01 00:16:02;;;;;;;21.08;11.38;;;;;;;;;;6234442;23;20008;-45
2022/05/01 00:18:27;;;;;;;24.95;12.27;;;;;;;;;;6236489;23;20024;-48
2022/05/01 00:20:53;;;;;;;15.32;10.48;;;;;;;;;;6238079;23;20012;-47
2022/05/01 00:23:19;;;;;;;17.13;11.07;;;;;;;;;;6235410;23;20046;-45
2022/05/01 00:25:44;;;;;;;18.60;11.07;;;;;;;;;;6237668;23;20008;-45
2022/05/01 00:28:10;;;;;;;18.92;11.55;;;;;;;;;;6233983;23;20028;-46
2022/05/01 00:30:36;;;;;;;22.98;11.30;;;;;;;;;;6236557;23;20019;-46
2022/05/01 00:38:30;;;;;;;17.77;10.55;;;;;;;;;;6235991;23;20518;-44
2022/05/01 00:40:55;;;;;;;23.42;10.82;;;;;;;;;;6236471;23;20016;-44
2022/05/01 00:43:21;;;;;;;18.25;11.02;;;;;;;;;;6235737;23;20023;-44
2022/05/01 00:45:46;;;;;;;23.67;12.02;;;;;;;;;;6238066;23;20008;-45
2022/05/01 00:48:11;;;;;;;18.08;10.43;;;;;;;;;;6234931;23;20020;-46
2022/05/01 00:50:36;;;;;;;16.75;9.98;;;;;;;;;;6236865;23;20004;-45
2022/05/01 00:53:06;;;;;;;22.45;9.98;;;;;;;;;;6236284;23;20032;-46
2022/05/01 00:55:32;;;;;;;21.67;10.70;;;;;;;;;;6236358;23;20038;-46
2022/05/01 00:57:58;;;;;;;18.13;10.45;;;;;;;;;;6236645;23;20069;-46
2022/05/01 01:00:23;;;;;;;18.55;10.50;;;;;;;;;;6235502;23;20016;-46
2022/05/01 01:02:48;;;;;;;22.67;11.32;;;;;;;;;;6236468;23;20755;-45
2022/05/01 01:05:14;;;;;;;18.73;10.90;;;;;;;;;;6236794;23;20019;-44
2022/05/01 01:07:39;;;;;;;20.85;10.65;;;;;;;;;;6236537;23;20020;-45
2022/05/01 01:10:05;;;;;;;31.80;11.30;;;;;;;;;;6236505;23;20008;-46
2022/05/01 01:15:15;;;;;;;20.55;10.32;;;;;;;;;;6235970;23;20350;-44
2022/05/01 01:17:41;;;;;;;21.73;11.98;;;;;;;;;;6230902;23;20008;-46
2022/05/01 01:20:27;;;;;;;17.17;10.30;;;;;;;;;;6209014;23;20016;-44
2022/05/01 01:22:56;;;;;;;21.20;11.25;;;;;;;;;;6235191;23;20069;-45
2022/05/01 01:25:22;;;;;;;18.00;11.05;;;;;;;;;;6234854;23;20035;-44
2022/05/01 01:27:48;;;;;;;19.23;11.30;;;;;;;;;;6235162;23;20559;-45
2022/05/01 01:32:58;;;;;;;18.67;9.93;;;;;;;;;;6236641;23;20045;-46
2022/05/01 01:35:24;;;;;;;22.15;10.98;;;;;;;;;;6236543;23;20012;-45
2022/05/01 01:37:49;;;;;;;15.23;9.75;;;;;;;;;;6235287;23;20008;-44
2022/05/01 01:40:19;;;;;;;20.73;10.15;;;;;;;;;;6236410;23;20066;-44
2022/05/01 01:42:44;;;;;;;20.63;10.07;;;;;;;;;;6235539;23;20004;-45
2022/05/01 01:45:09;;;;;;;16.65;9.27;;;;;;;;;;6236357;23;20064;-45
2022/05/01 01:47:35;;;;;;;17.30;9.95;;;;;;;;;;6234382;23;20013;-45
2022/05/01 01:50:00;;;;;;;19.25;11.13;;;;;;;;;;6236420;23;20016;-46
2022/05/01 01:52:25;;;;;;;17.25;9.88;;;;;;;;;;6234915;23;20005;-45
2022/05/01 01:54:51;;;;;;;16.10;9.75;;;;;;;;;;6235685;23;20016;-46
2022/05/01 01:57:16;;;;;;;15.65;10.07;;;;;;;;;;6235747;23;20052;-44
2022/05/01 01:59:42;;;;;;;15.30;9.27;;;;;;;;;;6234700;23;20016;-45
2022/05/01 02:02:08;;;;;;;18.38;9.80;;;;;;;;;;6236472;23;20012;-45
2022/05/01 02:04:34;;;;;;;18.73;11.82;;;;;;;;;;6234117;23;20012;-45
2022/05/01 02:06:59;;;;;;;19.42;10.55;;;;;;;;;;6232730;23;20062;-44
2022/05/01 02:09:24;;;;;;;19.08;10.25;;;;;;;;;;6234564;23;20024;-45
2022/05/01 02:11:50;;;;;;;19.38;11.35;;;;;;;;;;6236620;23;20020;-48
2022/05/01 02:14:15;;;;;;;18.25;10.40;;;;;;;;;;6234257;23;20004;-44
2022/05/01 02:16:40;;;;;;;18.70;10.00;;;;;;;;;;6236385;23;20016;-44
2022/05/01 02:19:06;;;;;;;17.77;10.70;;;;;;;;;;6234531;23;20060;-43
2022/05/01 02:21:34;;;;;;;18.85;9.98;;;;;;;;;;6233938;23;20598;-45
2022/05/01 02:23:59;;;;;;;19.77;9.95;;;;;;;;;;6235215;23;20577;-45
2022/05/01 02:26:24;;;;;;;19.17;10.85;;;;;;;;;;6235138;23;20012;-45
2022/05/01 02:28:50;;;;;;;22.83;10.65;;;;;;;;;;6234546;23;20420;-44
2022/05/01 02:31:15;;;;;;;20.02;9.85;;;;;;;;;;6235189;23;20362;-43
2022/05/01 02:33:41;;;;;;;17.83;10.30;;;;;;;;;;6234890;23;20020;-43
2022/05/01 02:36:06;;;;;;;18.88;10.00;;;;;;;;;;6236068;23;20008;-43
2022/05/01 02:38:34;;;;;;;17.42;10.55;;;;;;;;;;6233243;23;20016;-43
2022/05/01 02:40:59;;;;;;;21.75;10.93;;;;;;;;;;6208755;23;20032;-44
2022/05/01 02:43:25;;;;;;;18.00;10.55;;;;;;;;;;6234108;23;20008;-45
2022/05/01 02:45:51;;;;;;;23.13;11.10;;;;;;;;;;6235880;23;20020;-45
2022/05/01 02:51:06;;;;;;;19.02;9.88;;;;;;;;;;6187810;22;20806;-47
2022/05/01 02:53:32;;;;;;;18.80;11.05;;;;;;;;;;6224598;22;20355;-49
2022/05/01 02:56:00;;;;;;;18.77;10.38;;;;;;;;;;6210178;23;20004;-48
2022/05/01 02:58:26;;;;;;;20.98;10.35;;;;;;;;;;6233402;22;20468;-48
2022/05/01 03:00:51;;;;;;;22.73;11.20;;;;;;;;;;6236688;22;20677;-46
2022/05/01 03:03:16;;;;;;;20.50;10.52;;;;;;;;;;6233773;22;20032;-50
2022/05/01 03:05:41;;;;;;;19.85;9.98;;;;;;;;;;6235248;22;20032;-45
2022/05/01 03:08:07;;;;;;;18.00;9.98;;;;;;;;;;6236175;22;20035;-47
2022/05/01 03:10:34;;;;;;;17.02;10.88;;;;;;;;;;6234130;22;20046;-46
2022/05/01 03:13:00;;;;;;;26.73;12.30;;;;;;;;;;6235789;22;20034;-46
2022/05/01 03:15:25;;;;;;;15.30;10.50;;;;;;;;;;6233129;22;20775;-48
2022/05/01 03:23:25;;;;;;;23.55;10.68;;;;;;;;;;6197606;22;20020;-49
2022/05/01 03:25:51;;;;;;;17.58;9.90;;;;;;;;;;6236474;22;20035;-47
2022/05/01 03:28:16;;;;;;;17.98;10.10;;;;;;;;;;6234039;22;20012;-45
2022/05/01 03:30:42;;;;;;;18.52;10.32;;;;;;;;;;6234108;22;20016;-46
2022/05/01 03:33:07;;;;;;;19.38;10.85;;;;;;;;;;6235202;22;20004;-46
2022/05/01 03:35:35;;;;;;;21.02;11.65;;;;;;;;;;6232330;22;20014;-46
2022/05/01 03:38:04;;;;;;;21.70;11.40;;;;;;;;;;6235769;22;20043;-44
2022/05/01 03:40:29;;;;;;;19.92;11.90;;;;;;;;;;6236401;22;20086;-44
2022/05/01 03:42:54;;;;;;;19.92;10.77;;;;;;;;;;6232059;22;20019;-47
2022/05/01 03:45:20;;;;;;;19.85;10.40;;;;;;;;;;6207787;22;20012;-44
2022/05/01 03:47:45;;;;;;;21.70;11.60;;;;;;;;;;6234821;22;20020;-44
2022/05/01 03:50:11;;;;;;;20.60;10.00;;;;;;;;;;6234473;22;20079;-45
2022/05/01 03:52:37;;;;;;;22.33;10.27;;;;;;;;;;6208101;23;20012;-46
2022/05/01 03:55:02;;;;;;;23.85;11.57;;;;;;;;;;6235479;22;20035;-45
2022/05/01 03:57:27;;;;;;;16.65;9.95;;;;;;;;;;6233692;22;20023;-45
2022/05/01 03:59:53;;;;;;;16.10;10.23;;;;;;;;;;6233533;22;20036;-45
2022/05/01 04:02:18;;;;;;;18.80;10.52;;;;;;;;;;6234142;22;20229;-43
2022/05/01 04:04:45;;;;;;;19.52;9.73;;;;;;;;;;6234270;22;20043;-44
2022/05/01 04:07:11;;;;;;;21.80;11.82;;;;;;;;;;6234816;22;20027;-49
2022/05/01 04:09:36;;;;;;;21.55;11.00;;;;;;;;;;6233114;22;20004;-45
2022/05/01 04:12:02;;;;;;;20.50;11.00;;;;;;;;;;6235597;22;20012;-47
2022/05/01 04:14:28;;;;;;;24.48;10.07;;;;;;;;;;6232393;22;20012;-44
2022/05/01 04:16:55;;;;;;;15.13;9.65;;;;;;;;;;6235138;22;20023;-43
2022/05/01 04:19:20;;;;;;;21.65;10.27;;;;;;;;;;6232962;22;20012;-46
2022/05/01 04:21:45;;;;;;;20.83;9.95;;;;;;;;;;6235043;22;20598;-48
2022/05/01 04:24:10;;;;;;;22.20;11.15;;;;;;;;;;6233698;22;20225;-47
2022/05/01 04:26:36;;;;;;;14.98;9.50;;;;;;;;;;6235457;22;20008;-44
2022/05/01 04:31:45;;;;;;;17.40;10.57;;;;;;;;;;6235199;22;20069;-45
2022/05/01 04:34:10;;;;;;;24.05;11.63;;;;;;;;;;6206411;23;20004;-50
2022/05/01 04:36:39;;;;;;;17.95;10.15;;;;;;;;;;6236797;22;20008;-46
2022/05/01 04:39:04;;;;;;;18.48;10.40;;;;;;;;;;6235225;22;20012;-44
2022/05/01 04:41:30;;;;;;;18.83;10.07;;;;;;;;;;6236530;22;20063;-47
2022/05/01 04:43:55;;;;;;;19.77;11.13;;;;;;;;;;6235357;22;20008;-46
2022/05/01 04:46:20;;;;;;;20.80;10.32;;;;;;;;;;6236253;22;20024;-45
2022/05/01 04:48:45;;;;;;;21.75;11.38;;;;;;;;;;6235049;22;20683;-45
2022/05/01 04:51:11;;;;;;;18.05;10.10;;;;;;;;;;6235783;22;20050;-51
2022/05/01 04:53:36;;;;;;;17.50;10.65;;;;;;;;;;6235201;22;20012;-44
2022/05/01 04:57:05;;;;;;;20.42;10.43;;;;;;;;;;6236630;22;20005;-45
2022/05/01 04:58:47;;;;;;;16.27;10.32;;;;;;;;;;6234994;22;20089;-44
2022/05/01 05:01:13;;;;;;;14.25;9.68;;;;;;;;;;6235688;22;20008;-47
2022/05/01 05:03:38;;;;;;;19.73;10.68;;;;;;;;;;6237130;22;20008;-46
2022/05/01 05:06:03;;;;;;;18.45;10.88;;;;;;;;;;6236817;22;20023;-45
2022/05/01 05:11:12;;;;;;;19.75;10.52;;;;;;;;;;6235911;22;20085;-46
2022/05/01 05:13:37;;;;;;;20.92;12.20;;;;;;;;;;6235761;22;20004;-46
2022/05/01 05:16:08;;;;;;;22.98;10.85;;;;;;;;;;6237209;22;20046;-46
2022/05/01 05:18:34;;;;;;;20.67;10.73;;;;;;;;;;6235285;22;20000;-45
2022/05/01 05:20:59;;;;;;;17.10;10.10;;;;;;;;;;6236952;22;20036;-45
2022/05/01 05:23:25;;;;;;;17.73;11.05;;;;;;;;;;6235532;22;20070;-46
2022/05/01 05:25:50;;;;;;;24.13;10.95;;;;;;;;;;6237247;22;20019;-50
2022/05/01 05:28:18;;;;;;;23.98;11.20;;;;;;;;;;6235295;22;20012;-47
2022/05/01 05:30:43;;;;;;;19.80;11.27;;;;;;;;;;6237244;22;20559;-47
2022/05/01 05:33:09;;;;;;;21.52;11.88;;;;;;;;;;6235536;22;20020;-45
2022/05/01 05:35:34;;;;;;;27.55;11.98;;;;;;;;;;6235832;22;20008;-47
2022/05/01 05:37:59;;;;;;;21.65;11.32;;;;;;;;;;6236130;22;20020;-44
2022/05/01 05:40:25;;;;;;;18.27;10.45;;;;;;;;;;6209928;22;20667;-47
2022/05/01 05:42:50;;;;;;;21.88;11.75;;;;;;;;;;6209266;23;20012;-47
2022/05/01 05:45:15;;;;;;;22.10;11.93;;;;;;;;;;6235659;22;20016;-46
2022/05/01 05:47:40;;;;;;;23.02;12.27;;;;;;;;;;6234695;22;20036;-45
2022/05/01 05:50:06;;;;;;;23.15;13.38;;;;;;;;;;6236461;22;20017;-47
2022/05/01 05:52:32;;;;;;;19.38;10.68;;;;;;;;;;6233879;22;20018;-47
2022/05/01 05:54:57;;;;;;;20.08;12.38;;;;;;;;;;6235827;22;20009;-45
2022/05/01 05:57:22;;;;;;;22.27;11.80;;;;;;;;;;6234893;22;20026;-45
2022/05/01 05:59:48;;;;;;;30.23;14.55;;;;;;;;;;6236493;22;20087;-45
2022/05/01 06:02:13;;;;;;;27.95;14.00;;;;;;;;;;6234869;22;20016;-45
2022/05/01 06:04:41;;;;;;;23.67;14.63;;;;;;;;;;6234848;22;20004;-47
2022/05/01 06:07:06;;;;;;;29.60;14.88;;;;;;;;;;6235940;22;20032;-44
2022/05/01 06:09:32;;;;;;;26.42;14.93;;;;;;;;;;6233219;22;20031;-46
2022/05/01 06:11:57;;;;;;;28.40;16.27;;;;;;;;;;6236055;22;20012;-45
2022/05/01 06:14:23;;;;;;;33.60;17.02;;;;;;;;;;6233319;22;20024;-44
2022/05/01 06:16:48;;;;;;;28.92;14.43;;;;;;;;;;6236082;22;20012;-45
2022/05/01 06:19:15;;;;;;;27.15;15.05;;;;;;;;;;6233393;22;20008;-45
2022/05/01 06:21:40;;;;;;;23.33;14.45;;;;;;;;;;6235111;22;20016;-46
2022/05/01 06:24:07;;;;;;;30.75;16.10;;;;;;;;;;6234863;22;20034;-45
2022/05/01 06:26:32;;;;;;;32.60;16.77;;;;;;;;;;6235138;22;20012;-46
2022/05/01 06:28:59;;;;;;;27.58;15.75;;;;;;;;;;6234889;22;20082;-46
2022/05/01 06:31:24;;;;;;;25.08;15.18;;;;;;;;;;6235293;22;20082;-46
2022/05/01 06:33:50;;;;;;;31.48;15.50;;;;;;;;;;6233932;22;20004;-45
2022/05/01 06:36:16;;;;;;;29.58;15.70;;;;;;;;;;6235181;22;20469;-49
2022/05/01 06:38:43;;;;;;;27.58;16.63;;;;;;;;;;6234276;22;20004;-47
2022/05/01 06:41:08;;;;;;;27.83;14.88;;;;;;;;;;6208602;23;20008;-48
2022/05/01 06:43:34;;;;;;;31.20;15.80;;;;;;;;;;6206521;22;20004;-46
2022/05/01 06:45:59;;;;;;;30.35;16.60;;;;;;;;;;6236039;22;20000;-52
2022/05/01 06:48:25;;;;;;;30.45;15.30;;;;;;;;;;6234675;22;20111;-45
2022/05/01 06:50:50;;;;;;;27.20;15.13;;;;;;;;;;6234098;22;20126;-45
2022/05/01 06:53:16;;;;;;;23.63;13.85;;;;;;;;;;6234961;22;20047;-48
2022/05/01 06:55:41;;;;;;;26.27;14.35;;;;;;;;;;6234923;22;20004;-45
2022/05/01 06:58:06;;;;;;;28.15;14.57;;;;;;;;;;6235958;22;20056;-46
2022/05/01 07:00:32;;;;;;;28.00;15.05;;;;;;;;;;6235203;22;20089;-47
2022/05/01 07:02:57;;;;;;;33.10;13.57;;;;;;;;;;6234409;22;20047;-47
2022/05/01 07:05:23;;;;;;;27.65;13.05;;;;;;;;;;6234730;22;20035;-46
2022/05/01 07:07:50;;;;;;;26.48;13.82;;;;;;;;;;6234497;22;20027;-45
2022/05/01 07:10:15;;;;;;;27.92;13.60;;;;;;;;;;6234615;22;19996;-47
2022/05/01 07:12:41;;;;;;;26.75;13.93;;;;;;;;;;6234167;22;20060;-47
2022/05/01 07:15:06;;;;;;;28.27;14.45;;;;;;;;;;6236069;22;20012;-44
2022/05/01 07:17:32;;;;;;;25.55;14.65;;;;;;;;;;6233490;22;20047;-48
2022/05/01 07:19:57;;;;;;;24.55;14.00;;;;;;;;;;6235651;22;20008;-46
2022/05/01 07:22:23;;;;;;;22.85;14.60;;;;;;;;;;6233301;22;20013;-45
2022/05/01 07:24:48;;;;;;;28.23;15.23;;;;;;;;;;6235470;22;20009;-47
2022/05/01 07:27:13;;;;;;;31.50;15.65;;;;;;;;;;6233226;22;20016;-46
2022/05/01 07:29:38;;;;;;;31.92;16.63;;;;;;;;;;6235858;22;20756;-46
2022/05/01 07:32:04;;;;;;;29.60;15.35;;;;;;;;;;6233486;22;20012;-46
2022/05/01 07:34:29;;;;;;;36.35;18.48;;;;;;;;;;6233564;22;20388;-46
2022/05/01 07:36:55;;;;;;;29.10;16.35;;;;;;;;;;6234856;22;20036;-46
2022/05/01 07:39:20;;;;;;;32.83;18.38;;;;;;;;;;6234357;22;20008;-50
2022/05/01 07:41:45;;;;;;;36.67;17.73;;;;;;;;;;6235538;22;20016;-46
2022/05/01 07:44:13;;;;;;;30.80;18.38;;;;;;;;;;6233853;22;20008;-50
2022/05/01 07:46:43;;;;;;;38.70;19.85;;;;;;;;;;6234462;22;20237;-47
2022/05/01 07:49:08;;;;;;;;;;;;;;;;;;6236443;22;20020;-48
2022/05/01 07:51:34;;;;;;;38.42;17.48;;;;;;;;;;6232265;22;19950;-47
2022/05/01 07:54:00;;;;;;;35.88;19.70;;;;;;;;;;6234782;22;20013;-45
2022/05/01 07:56:26;;;;;;;35.97;18.67;;;;;;;;;;6206268;22;20020;-46
2022/05/01 07:58:51;;;;;;;35.30;18.60;;;;;;;;;;6235295;22;20371;-46
2022/05/01 08:01:17;;;;;;;42.60;19.48;;;;;;;;;;6233995;22;20001;-46
2022/05/01 08:06:26;;;;;;;32.67;19.00;;;;;;;;;;6232817;22;20038;-44
2022/05/01 08:08:51;;;;;;;42.28;20.95;;;;;;;;;;6235646;22;20351;-44
2022/05/01 08:11:17;;;;;;;37.92;19.50;;;;;;;;;;6234634;22;20008;-46
2022/05/01 08:13:42;;;;;;;40.33;20.98;;;;;;;;;;6236843;22;20050;-47
2022/05/01 08:16:07;;;;;;;33.88;19.73;;;;;;;;;;6234466;22;20254;-47
2022/05/01 08:21:17;;;;;;;39.42;19.88;;;;;;;;;;6235086;22;20014;-46
2022/05/01 08:23:42;;;;;;;35.08;21.02;;;;;;;;;;6238122;22;20028;-44
2022/05/01 08:26:10;;;;;;;40.95;21.00;;;;;;;;;;6236434;22;20107;-45
2022/05/01 08:28:39;;;;;;;39.88;22.23;;;;;;;;;;6210156;23;20008;-45
2022/05/01 08:31:05;;;;;;;44.72;24.17;;;;;;;;;;6236258;22;20012;-44
2022/05/01 08:33:30;;;;;;;44.80;22.30;;;;;;;;;;6236268;22;20023;-46
2022/05/01 08:35:56;;;;;;;41.28;23.65;;;;;;;;;;6236207;22;20016;-57
2022/05/01 08:38:22;;;;;;;40.42;22.35;;;;;;;;;;6237325;22;20012;-48
2022/05/01 08:40:49;;;;;;;39.53;22.45;;;;;;;;;;6236354;22;20016;-46
2022/05/01 08:43:15;;;;;;;44.47;21.70;;;;;;;;;;6236335;22;20064;-45
2022/05/01 08:45:56;;;;;;;40.50;20.83;;;;;;;;;;6236684;22;20023;-48
2022/05/01 08:48:24;;;;;;;42.35;21.42;;;;;;;;;;6232585;22;20032;-45
2022/05/01 08:50:50;;;;;;;36.13;19.85;;;;;;;;;;6234017;22;20031;-47
2022/05/01 08:53:17;;;;;;;42.58;20.25;;;;;;;;;;6234750;22;20011;-47
2022/05/01 08:55:43;;;;;;;41.83;22.13;;;;;;;;;;6234921;22;20014;-46
2022/05/01 08:58:08;;;;;;;33.25;18.85;;;;;;;;;;6236629;22;20032;-45
2022/05/01 09:00:33;;;;;;;34.25;16.63;;;;;;;;;;6232576;22;20012;-44
2022/05/01 09:02:59;;;;;;;36.38;17.65;;;;;;;;;;6236070;22;20008;-46
2022/05/01 09:05:24;;;;;;;39.35;19.67;;;;;;;;;;6236047;22;20016;-46
2022/05/01 09:07:49;;;;;;;35.85;19.05;;;;;;;;;;6234316;22;20378;-48
2022/05/01 09:10:16;;;;;;;37.72;18.20;;;;;;;;;;6234405;22;20004;-48
2022/05/01 09:12:50;;;;;;;31.58;17.52;;;;;;;;;;6233967;22;20393;-46
2022/05/01 09:15:34;;;;;;;31.42;17.50;;;;;;;;;;6234894;22;20011;-46
2022/05/01 09:18:01;;;;;;;31.48;17.23;;;;;;;;;;6235203;22;20012;-47
2022/05/01 09:20:26;;;;;;;29.85;15.90;;;;;;;;;;6234836;22;20020;-48
2022/05/01 09:22:52;;;;;;;32.83;17.08;;;;;;;;;;6233631;22;20008;-50
2022/05/01 09:25:18;;;;;;;32.80;18.35;;;;;;;;;;6235690;22;20109;-50
2022/05/01 09:27:44;;;;;;;34.08;18.85;;;;;;;;;;6234797;22;20023;-46
2022/05/01 09:30:15;;;;;;;34.50;17.85;;;;;;;;;;6236817;22;20082;-46
2022/05/01 09:32:41;;;;;;;34.17;16.83;;;;;;;;;;6234126;22;20368;-49
2022/05/01 09:35:08;;;;;;;36.20;18.30;;;;;;;;;;6236339;22;20653;-46
2022/05/01 09:37:33;;;;;;;42.58;19.55;;;;;;;;;;6233719;22;20004;-45
2022/05/01 09:39:58;;;;;;;37.05;18.40;;;;;;;;;;6237035;22;20090;-44
2022/05/01 09:42:25;;;;;;;30.90;17.38;;;;;;;;;;6234543;22;20657;-46
2022/05/01 09:45:06;;;;;;;34.20;19.67;;;;;;;;;;6210438;23;20004;-49
2022/05/01 09:47:35;;;;;;;36.70;20.17;;;;;;;;;;6233535;22;20203;-46
2022/05/01 09:50:01;;;;;;;33.45;19.10;;;;;;;;;;6234896;22;20027;-45
2022/05/01 09:52:47;;;;;;;34.38;18.73;;;;;;;;;;6234040;22;20012;-46
2022/05/01 09:55:12;;;;;;;35.85;18.58;;;;;;;;;;6233999;22;20470;-46
2022/05/01 09:57:37;;;;;;;33.53;18.02;;;;;;;;;;6234742;22;20016;-48
2022/05/01 10:00:03;;;;;;;41.10;18.15;;;;;;;;;;6234432;22;20008;-47
2022/05/01 10:02:29;;;;;;;37.30;18.33;;;;;;;;;;6234732;22;20016;-46
2022/05/01 10:04:56;;;;;;;29.20;17.33;;;;;;;;;;6233265;22;20018;-48
2022/05/01 10:07:23;;;;;;;29.73;16.45;;;;;;;;;;6234231;22;20046;-47
2022/05/01 10:09:49;;;;;;;37.83;19.38;;;;;;;;;;6234061;22;20016;-50
2022/05/01 10:12:15;;;;;;;32.63;18.50;;;;;;;;;;6231190;22;20008;-48
2022/05/01 10:14:42;;;;;;;32.22;16.85;;;;;;;;;;6233278;22;20072;-48
2022/05/01 10:17:07;;;;;;;47.50;20.27;;;;;;;;;;6235691;22;20018;-47
2022/05/01 10:19:32;;;;;;;36.45;17.88;;;;;;;;;;6206445;22;20032;-46
2022/05/01 10:21:59;;;;;;;38.05;17.90;;;;;;;;;;6221646;22;20012;-47
2022/05/01 10:24:25;;;;;;;28.63;17.30;;;;;;;;;;6233913;22;20024;-45
2022/05/01 10:27:25;;;;;;;25.83;14.75;;;;;;;;;;6235052;22;20043;-46
2022/05/01 10:32:45;;;;;;;23.55;14.60;;;;;;;;;;6225350;22;20011;-46
2022/05/01 10:35:32;;;;;;;28.48;15.23;;;;;;;;;;6235658;22;20039;-51
2022/05/01 10:38:10;;;;;;;23.05;13.18;;;;;;;;;;6234649;22;20027;-49
2022/05/01 10:40:40;;;;;;;21.60;13.27;;;;;;;;;;6231763;22;20004;-46
2022/05/01 10:43:24;;;;;;;26.75;14.73;;;;;;;;;;6226417;22;20004;-47
2022/05/01 10:45:50;;;;;;;23.92;14.02;;;;;;;;;;6232454;22;20032;-46
2022/05/01 10:48:27;;;;;;;27.95;14.73;;;;;;;;;;6208818;22;20020;-46
2022/05/01 10:50:53;;;;;;;23.25;12.98;;;;;;;;;;6229091;22;20020;-46
2022/05/01 10:53:19;;;;;;;28.73;14.18;;;;;;;;;;6200927;22;20016;-47
2022/05/01 10:56:14;;;;;;;21.33;12.93;;;;;;;;;;6203591;23;20008;-46
2022/05/01 10:58:39;;;;;;;26.67;14.55;;;;;;;;;;6230137;22;20793;-46
2022/05/01 11:01:04;;;;;;;26.67;15.77;;;;;;;;;;6231988;22;20012;-47
2022/05/01 11:03:32;;;;;;;33.65;15.95;;;;;;;;;;6228484;22;20044;-45
2022/05/01 11:06:01;;;;;;;29.75;14.00;;;;;;;;;;6206146;23;20027;-45
2022/05/01 11:08:28;;;;;;;24.67;12.95;;;;;;;;;;6228619;22;20527;-46
2022/05/01 11:10:55;;;;;;;19.80;11.70;;;;;;;;;;6206263;23;20012;-46
2022/05/01 11:13:23;;;;;;;22.70;12.52;;;;;;;;;;6229993;22;20008;-47
2022/05/01 11:15:50;;;;;;;22.75;11.43;;;;;;;;;;6226244;22;20008;-46
2022/05/01 11:18:15;;;;;;;21.05;11.20;;;;;;;;;;6227977;22;20016;-45
2022/05/01 11:20:43;;;;;;;21.98;11.45;;;;;;;;;;6230977;22;20004;-46
2022/05/01 11:23:31;;;;;;;22.90;13.10;;;;;;;;;;6232964;22;20019;-47
2022/05/01 11:26:09;;;;;;;25.17;13.35;;;;;;;;;;6232075;22;20035;-46
2022/05/01 11:28:41;;;;;;;20.35;11.93;;;;;;;;;;6233263;22;20023;-44
2022/05/01 11:31:27;;;;;;;17.48;11.43;;;;;;;;;;6233987;22;20035;-45
2022/05/01 11:34:24;;;;;;;21.55;11.43;;;;;;;;;;6232240;22;20015;-45
2022/05/01 11:36:49;;;;;;;20.67;9.88;;;;;;;;;;6234931;22;20481;-45
2022/05/01 11:39:15;;;;;;;15.13;8.90;;;;;;;;;;6232812;22;20064;-46
2022/05/01 11:41:43;;;;;;;17.65;8.85;;;;;;;;;;6236081;22;20057;-47
2022/05/01 11:44:18;;;;;;;18.20;10.40;;;;;;;;;;6233110;22;20030;-47
2022/05/01 11:46:44;;;;;;;14.80;8.77;;;;;;;;;;6208262;23;20004;-46
2022/05/01 11:49:10;;;;;;;14.05;9.70;;;;;;;;;;6237564;22;20026;-46
2022/05/01 11:51:35;;;;;;;20.85;11.63;;;;;;;;;;6235075;22;20184;-44
2022/05/01 11:54:01;;;;;;;19.25;10.23;;;;;;;;;;6237062;22;20103;-45
2022/05/01 12:04:38;;;;;;;17.67;8.75;;;;;;;;;;6235698;22;20069;-45
2022/05/01 12:07:04;;;;;;;13.05;8.73;;;;;;;;;;6238562;22;20008;-44
2022/05/01 12:09:31;;;;;;;18.02;9.57;;;;;;;;;;6235072;22;20020;-47
2022/05/01 12:11:56;;;;;;;17.70;10.30;;;;;;;;;;6236890;22;20008;-44
2022/05/01 12:14:21;;;;;;;21.23;10.57;;;;;;;;;;6235285;22;20324;-45
2022/05/01 12:16:47;;;;;;;24.48;11.88;;;;;;;;;;6233074;22;20043;-48
2022/05/01 12:19:13;;;;;;;21.05;10.23;;;;;;;;;;6209858;22;20044;-49
2022/05/01 12:21:38;;;;;;;19.73;10.48;;;;;;;;;;6208708;23;20008;-47
2022/05/01 12:24:07;;;;;;;20.63;11.95;;;;;;;;;;6222135;22;20019;-45
2022/05/01 12:26:38;;;;;;;21.00;11.07;;;;;;;;;;6226083;22;20022;-48
2022/05/01 12:29:07;;;;;;;19.63;11.57;;;;;;;;;;6227988;22;20482;-46
2022/05/01 12:31:52;;;;;;;17.10;10.63;;;;;;;;;;6198312;22;20069;-45
2022/05/01 12:34:27;;;;;;;22.48;12.55;;;;;;;;;;6225560;22;20055;-44
2022/05/01 12:37:02;;;;;;;18.02;11.02;;;;;;;;;;6228635;22;20004;-48
2022/05/01 12:39:28;;;;;;;23.08;11.90;;;;;;;;;;6228428;22;20016;-44
2022/05/01 12:45:07;;;;;;;22.17;11.75;;;;;;;;;;6229114;22;20066;-46
2022/05/01 12:47:52;;;;;;;19.90;11.82;;;;;;;;;;6228040;22;20513;-45
2022/05/01 12:50:18;;;;;;;20.42;12.43;;;;;;;;;;6225600;22;20016;-45
2022/05/01 12:52:43;;;;;;;20.23;12.13;;;;;;;;;;6228215;22;20054;-46
2022/05/01 12:55:08;;;;;;;24.80;11.75;;;;;;;;;;6227217;22;20286;-45
2022/05/01 12:57:34;;;;;;;20.65;13.43;;;;;;;;;;6228869;22;20015;-45
2022/05/01 13:00:00;;;;;;;21.95;13.63;;;;;;;;;;6227247;22;20521;-45
2022/05/01 13:02:25;;;;;;;21.35;12.70;;;;;;;;;;6227290;22;20043;-45
2022/05/01 13:05:00;;;;;;;23.50;13.48;;;;;;;;;;6226333;22;20012;-47
2022/05/01 13:07:35;;;;;;;25.00;12.43;;;;;;;;;;6227029;22;20019;-45
2022/05/01 13:10:02;;;;;;;25.42;13.68;;;;;;;;;;6223529;22;20043;-48
2022/05/01 13:12:31;;;;;;;23.75;13.52;;;;;;;;;;6226056;22;20019;-45
2022/05/01 13:15:02;;;;;;;24.05;12.70;;;;;;;;;;6225774;22;20724;-47
2022/05/01 13:17:28;;;;;;;26.33;14.18;;;;;;;;;;6227842;22;20016;-46
2022/05/01 13:19:54;;;;;;;27.05;13.20;;;;;;;;;;6218215;22;20039;-45
2022/05/01 13:22:19;;;;;;;23.80;13.52;;;;;;;;;;6223978;22;20004;-46
2022/05/01 13:24:46;;;;;;;22.13;12.40;;;;;;;;;;6226798;22;20016;-46
2022/05/01 13:27:12;;;;;;;21.58;12.27;;;;;;;;;;6220715;22;20012;-46
2022/05/01 13:29:38;;;;;;;23.25;12.93;;;;;;;;;;6221497;22;20485;-46
2022/05/01 13:32:06;;;;;;;24.38;12.82;;;;;;;;;;6225783;22;20008;-45
2022/05/01 13:34:32;;;;;;;26.27;12.07;;;;;;;;;;6226624;22;20019;-47
2022/05/01 13:36:59;;;;;;;23.05;13.07;;;;;;;;;;6225411;22;20004;-45
2022/05/01 13:44:54;;;;;;;23.60;14.13;;;;;;;;;;6225835;22;20082;-45
2022/05/01 13:47:21;;;;;;;26.45;14.75;;;;;;;;;;6226998;22;20008;-47
2022/05/01 13:49:47;;;;;;;27.65;15.05;;;;;;;;;;6225840;22;20027;-46
2022/05/01 13:52:12;;;;;;;34.00;14.25;;;;;;;;;;6227637;22;20063;-46
2022/05/01 13:54:37;;;;;;;24.17;13.88;;;;;;;;;;6226379;22;20008;-45
2022/05/01 13:57:03;;;;;;;26.50;13.73;;;;;;;;;;6228438;22;20446;-46
2022/05/01 13:59:28;;;;;;;22.27;13.85;;;;;;;;;;6226496;22;20058;-46
2022/05/01 14:01:56;;;;;;;20.63;13.13;;;;;;;;;;6224753;22;20016;-46
2022/05/01 14:04:22;;;;;;;27.00;14.23;;;;;;;;;;6226862;22;20039;-46
2022/05/01 14:06:48;;;;;;;20.92;12.75;;;;;;;;;;6225877;22;20038;-45
2022/05/01 14:09:17;;;;;;;21.75;13.75;;;;;;;;;;6227223;22;20709;-46
2022/05/01 14:11:43;;;;;;;26.73;13.82;;;;;;;;;;6226847;22;20012;-46
2022/05/01 14:14:08;;;;;;;28.08;14.73;;;;;;;;;;6227366;22;20015;-45
2022/05/01 14:16:34;;;;;;;23.65;13.98;;;;;;;;;;6221190;22;20058;-46
2022/05/01 14:18:59;;;;;;;27.85;14.23;;;;;;;;;;6224730;22;20038;-45
2022/05/01 14:21:25;;;;;;;31.27;15.18;;;;;;;;;;6227900;22;20024;-46
2022/05/01 14:23:50;;;;;;;25.67;14.10;;;;;;;;;;6235454;22;20463;-45
2022/05/01 14:26:16;;;;;;;30.27;16.02;;;;;;;;;;6235683;22;20086;-52
2022/05/01 14:28:42;;;;;;;29.65;15.85;;;;;;;;;;6234328;22;20012;-45
2022/05/01 14:31:19;;;;;;;26.88;15.05;;;;;;;;;;6236060;22;20055;-46
2022/05/01 14:33:46;;;;;;;34.38;16.15;;;;;;;;;;6226144;22;20016;-45
2022/05/01 14:36:22;;;;;;;28.63;16.67;;;;;;;;;;6231921;22;20008;-45
2022/05/01 14:38:53;;;;;;;22.10;13.60;;;;;;;;;;6232644;22;20018;-45
2022/05/01 14:41:24;;;;;;;32.17;15.95;;;;;;;;;;6230238;22;20008;-50
2022/05/01 14:43:51;;;;;;;26.38;15.82;;;;;;;;;;6231981;22;20012;-46
2022/05/01 14:46:16;;;;;;;26.52;15.45;;;;;;;;;;6229686;22;20031;-45
2022/05/01 14:48:44;;;;;;;39.13;17.00;;;;;;;;;;6232356;22;20411;-44
2022/05/01 14:51:10;;;;;;;30.30;17.75;;;;;;;;;;6229349;22;20520;-46
2022/05/01 14:53:36;;;;;;;33.53;17.55;;;;;;;;;;6230648;22;20008;-45
2022/05/01 14:56:02;;;;;;;31.63;18.58;;;;;;;;;;6226797;22;20015;-45
2022/05/01 15:06:43;;;;;;;33.03;18.73;;;;;;;;;;6222460;22;20031;-45
2022/05/01 15:09:10;;;;;;;28.35;16.83;;;;;;;;;;6228627;22;20125;-46
2022/05/01 15:11:38;;;;;;;35.53;18.30;;;;;;;;;;6232062;22;20043;-49
2022/05/01 15:14:03;;;;;;;31.05;18.38;;;;;;;;;;6228367;22;20008;-46
2022/05/01 15:16:34;;;;;;;31.27;16.65;;;;;;;;;;6191640;22;20027;-48